sensor_id;sensor_type;location;lat;lon;timestamp;P1;durP1;ratioP1;P2;durP2;ratioP2
8683;SDS011;4379;59.744;18.206;2022-08-27T00:01:24;6.60;;;6.10;;
8683;SDS011;4379;59.744;18.206;2022-08-27T00:03:54;6.85;;;6.38;;
8683;SDS011;4379;59.744;18.206;2022-08-27T00:06:23;8.32;;;7.63;;
8683;SDS011;4379;59.744;18.206;2022-08-27T00:08:52;7.82;;;7.20;;
8683;SDS011;4379;59.744;18.206;2022-08-27T00:11:21;7.57;;;6.82;;
8683;SDS011;4379;59.744;18.206;2022-08-27T00:13:51;6.90;;;6.50;;
8683;SDS011;4379;59.744;18.206;2022-08-27T00:16:19;6.75;;;6.35;;
8683;SDS011;4379;59.744;18.206;2022-08-27T00:18:49;7.47;;;7.00;;
8683;SDS011;4379;59.744;18.206;2022-08-27T00:21:16;7.50;;;7.10;;
8683;SDS011;4379;59.744;18.206;2022-08-27T00:23:44;7.22;;;6.72;;
8683;SDS011;4379;59.744;18.206;2022-08-27T00:26:12;6.70;;;6.30;;
8683;SDS011;4379;59.744;18.206;2022-08-27T00:28:40;7.25;;;6.75;;
8683;SDS011;4379;59.744;18.206;2022-08-27T00:31:08;6.60;;;6.15;;
8683;SDS011;4379;59.744;18.206;2022-08-27T00:33:38;8.30;;;7.70;;
8683;SDS011;4379;59.744;18.206;2022-08-27T00:36:06;6.80;;;6.40;;
8683;SDS011;4379;59.744;18.206;2022-08-27T00:38:34;6.97;;;6.57;;
8683;SDS011;4379;59.744;18.206;2022-08-27T00:41:03;6.28;;;5.97;;
8683;SDS011;4379;59.744;18.206;2022-08-27T00:46:34;7.28;;;6.78;;
8683;SDS011;4379;59.744;18.206;2022-08-27T00:51:45;7.47;;;6.88;;
8683;SDS011;4379;59.744;18.206;2022-08-27T00:54:16;7.35;;;6.90;;
8683;SDS011;4379;59.744;18.206;2022-08-27T00:56:45;6.05;;;5.75;;
8683;SDS011;4379;59.744;18.206;2022-08-27T00:59:18;5.88;;;5.47;;
8683;SDS011;4379;59.744;18.206;2022-08-27T01:01:49;6.35;;;6.05;;
8683;SDS011;4379;59.744;18.206;2022-08-27T01:04:36;7.13;;;6.43;;
8683;SDS011;4379;59.744;18.206;2022-08-27T01:07:06;6.78;;;6.28;;
8683;SDS011;4379;59.744;18.206;2022-08-27T01:09:35;6.30;;;5.90;;
8683;SDS011;4379;59.744;18.206;2022-08-27T01:12:04;5.65;;;5.30;;
8683;SDS011;4379;59.744;18.206;2022-08-27T01:14:31;8.82;;;6.40;;
8683;SDS011;4379;59.744;18.206;2022-08-27T01:16:59;7.53;;;7.00;;
8683;SDS011;4379;59.744;18.206;2022-08-27T01:22:32;7.22;;;6.75;;
8683;SDS011;4379;59.744;18.206;2022-08-27T01:25:10;7.50;;;6.85;;
8683;SDS011;4379;59.744;18.206;2022-08-27T01:27:40;6.30;;;5.88;;
8683;SDS011;4379;59.744;18.206;2022-08-27T01:30:11;6.28;;;5.95;;
8683;SDS011;4379;59.744;18.206;2022-08-27T01:32:41;5.90;;;5.43;;
8683;SDS011;4379;59.744;18.206;2022-08-27T01:35:10;6.53;;;6.13;;
8683;SDS011;4379;59.744;18.206;2022-08-27T01:37:39;6.57;;;6.07;;
8683;SDS011;4379;59.744;18.206;2022-08-27T01:40:09;6.40;;;6.00;;
8683;SDS011;4379;59.744;18.206;2022-08-27T01:42:43;5.97;;;5.68;;
8683;SDS011;4379;59.744;18.206;2022-08-27T01:45:14;6.55;;;6.07;;
8683;SDS011;4379;59.744;18.206;2022-08-27T01:47:44;5.82;;;5.53;;
8683;SDS011;4379;59.744;18.206;2022-08-27T01:50:19;6.53;;;5.93;;
8683;SDS011;4379;59.744;18.206;2022-08-27T01:52:50;5.30;;;5.00;;
8683;SDS011;4379;59.744;18.206;2022-08-27T01:55:20;5.43;;;5.03;;
8683;SDS011;4379;59.744;18.206;2022-08-27T01:57:49;5.75;;;5.45;;
8683;SDS011;4379;59.744;18.206;2022-08-27T02:00:19;5.43;;;4.93;;
8683;SDS011;4379;59.744;18.206;2022-08-27T02:02:55;6.05;;;5.65;;
8683;SDS011;4379;59.744;18.206;2022-08-27T02:05:23;5.90;;;5.50;;
8683;SDS011;4379;59.744;18.206;2022-08-27T02:07:51;6.15;;;5.75;;
8683;SDS011;4379;59.744;18.206;2022-08-27T02:10:41;6.32;;;5.75;;
8683;SDS011;4379;59.744;18.206;2022-08-27T02:13:07;6.25;;;5.85;;
8683;SDS011;4379;59.744;18.206;2022-08-27T02:15:35;8.63;;;8.02;;
8683;SDS011;4379;59.744;18.206;2022-08-27T02:18:03;6.70;;;5.97;;
8683;SDS011;4379;59.744;18.206;2022-08-27T02:20:32;7.30;;;6.90;;
8683;SDS011;4379;59.744;18.206;2022-08-27T02:23:00;7.18;;;6.57;;
8683;SDS011;4379;59.744;18.206;2022-08-27T02:25:30;6.38;;;6.07;;
8683;SDS011;4379;59.744;18.206;2022-08-27T02:27:57;8.00;;;7.22;;
8683;SDS011;4379;59.744;18.206;2022-08-27T02:30:26;8.52;;;7.70;;
8683;SDS011;4379;59.744;18.206;2022-08-27T02:32:55;7.57;;;7.00;;
8683;SDS011;4379;59.744;18.206;2022-08-27T02:35:22;8.45;;;7.95;;
8683;SDS011;4379;59.744;18.206;2022-08-27T02:37:50;9.32;;;8.65;;
8683;SDS011;4379;59.744;18.206;2022-08-27T02:40:19;9.57;;;8.77;;
8683;SDS011;4379;59.744;18.206;2022-08-27T02:42:48;10.45;;;9.23;;
8683;SDS011;4379;59.744;18.206;2022-08-27T02:45:16;10.27;;;9.52;;
8683;SDS011;4379;59.744;18.206;2022-08-27T02:47:44;9.60;;;8.88;;
8683;SDS011;4379;59.744;18.206;2022-08-27T02:50:11;9.10;;;8.27;;
8683;SDS011;4379;59.744;18.206;2022-08-27T02:52:40;8.68;;;8.15;;
8683;SDS011;4379;59.744;18.206;2022-08-27T02:55:07;8.75;;;8.05;;
8683;SDS011;4379;59.744;18.206;2022-08-27T02:57:35;8.70;;;8.10;;
8683;SDS011;4379;59.744;18.206;2022-08-27T03:00:06;11.75;;;10.57;;
8683;SDS011;4379;59.744;18.206;2022-08-27T03:02:39;11.90;;;10.98;;
8683;SDS011;4379;59.744;18.206;2022-08-27T03:05:07;11.25;;;10.10;;
8683;SDS011;4379;59.744;18.206;2022-08-27T03:07:36;10.32;;;9.48;;
8683;SDS011;4379;59.744;18.206;2022-08-27T03:10:04;9.63;;;8.98;;
8683;SDS011;4379;59.744;18.206;2022-08-27T03:12:32;12.02;;;11.13;;
8683;SDS011;4379;59.744;18.206;2022-08-27T03:15:03;10.88;;;9.98;;
8683;SDS011;4379;59.744;18.206;2022-08-27T03:17:32;11.00;;;10.30;;
8683;SDS011;4379;59.744;18.206;2022-08-27T03:20:18;12.60;;;11.48;;
8683;SDS011;4379;59.744;18.206;2022-08-27T03:22:45;12.48;;;11.43;;
8683;SDS011;4379;59.744;18.206;2022-08-27T03:25:12;13.10;;;11.38;;
8683;SDS011;4379;59.744;18.206;2022-08-27T03:27:40;10.82;;;9.90;;
8683;SDS011;4379;59.744;18.206;2022-08-27T03:30:12;10.65;;;9.93;;
8683;SDS011;4379;59.744;18.206;2022-08-27T03:32:43;10.48;;;9.60;;
8683;SDS011;4379;59.744;18.206;2022-08-27T03:35:12;11.95;;;10.65;;
8683;SDS011;4379;59.744;18.206;2022-08-27T03:37:40;10.57;;;9.77;;
8683;SDS011;4379;59.744;18.206;2022-08-27T03:40:07;10.60;;;9.80;;
8683;SDS011;4379;59.744;18.206;2022-08-27T03:42:36;11.73;;;10.68;;
8683;SDS011;4379;59.744;18.206;2022-08-27T03:45:05;12.15;;;11.10;;
8683;SDS011;4379;59.744;18.206;2022-08-27T03:47:34;11.60;;;10.70;;
8683;SDS011;4379;59.744;18.206;2022-08-27T03:50:03;11.02;;;10.25;;
8683;SDS011;4379;59.744;18.206;2022-08-27T03:52:31;11.10;;;10.00;;
8683;SDS011;4379;59.744;18.206;2022-08-27T03:55:00;9.75;;;9.10;;
8683;SDS011;4379;59.744;18.206;2022-08-27T03:57:27;9.25;;;8.55;;
8683;SDS011;4379;59.744;18.206;2022-08-27T03:59:55;10.88;;;9.85;;
8683;SDS011;4379;59.744;18.206;2022-08-27T04:02:22;10.90;;;10.25;;
8683;SDS011;4379;59.744;18.206;2022-08-27T04:04:50;10.80;;;9.75;;
8683;SDS011;4379;59.744;18.206;2022-08-27T04:07:17;9.63;;;9.02;;
8683;SDS011;4379;59.744;18.206;2022-08-27T04:09:45;9.68;;;9.05;;
8683;SDS011;4379;59.744;18.206;2022-08-27T04:12:12;9.75;;;9.05;;
8683;SDS011;4379;59.744;18.206;2022-08-27T04:14:40;9.02;;;8.43;;
8683;SDS011;4379;59.744;18.206;2022-08-27T04:17:07;9.10;;;8.45;;
8683;SDS011;4379;59.744;18.206;2022-08-27T04:19:34;8.43;;;7.80;;
8683;SDS011;4379;59.744;18.206;2022-08-27T04:22:03;7.75;;;7.35;;
8683;SDS011;4379;59.744;18.206;2022-08-27T04:24:32;9.75;;;8.95;;
8683;SDS011;4379;59.744;18.206;2022-08-27T04:27:01;9.77;;;9.10;;
8683;SDS011;4379;59.744;18.206;2022-08-27T04:29:29;8.18;;;7.68;;
8683;SDS011;4379;59.744;18.206;2022-08-27T04:31:57;8.73;;;8.13;;
8683;SDS011;4379;59.744;18.206;2022-08-27T04:34:25;8.50;;;8.00;;
8683;SDS011;4379;59.744;18.206;2022-08-27T04:36:56;8.93;;;8.05;;
8683;SDS011;4379;59.744;18.206;2022-08-27T04:39:24;7.65;;;7.00;;
8683;SDS011;4379;59.744;18.206;2022-08-27T04:41:53;8.30;;;7.90;;
8683;SDS011;4379;59.744;18.206;2022-08-27T04:44:21;9.38;;;8.68;;
8683;SDS011;4379;59.744;18.206;2022-08-27T04:46:53;7.88;;;7.30;;
8683;SDS011;4379;59.744;18.206;2022-08-27T04:49:23;9.63;;;8.90;;
8683;SDS011;4379;59.744;18.206;2022-08-27T04:51:52;8.85;;;8.13;;
8683;SDS011;4379;59.744;18.206;2022-08-27T04:54:20;8.80;;;8.20;;
8683;SDS011;4379;59.744;18.206;2022-08-27T04:56:57;8.70;;;8.10;;
8683;SDS011;4379;59.744;18.206;2022-08-27T04:59:25;8.70;;;8.23;;
8683;SDS011;4379;59.744;18.206;2022-08-27T05:01:55;8.80;;;8.20;;
8683;SDS011;4379;59.744;18.206;2022-08-27T05:04:24;8.40;;;7.90;;
8683;SDS011;4379;59.744;18.206;2022-08-27T05:06:52;9.02;;;8.43;;
8683;SDS011;4379;59.744;18.206;2022-08-27T05:09:20;9.98;;;9.18;;
8683;SDS011;4379;59.744;18.206;2022-08-27T05:11:52;9.07;;;8.38;;
8683;SDS011;4379;59.744;18.206;2022-08-27T05:14:21;9.55;;;8.82;;
8683;SDS011;4379;59.744;18.206;2022-08-27T05:16:50;9.10;;;8.50;;
8683;SDS011;4379;59.744;18.206;2022-08-27T05:19:18;8.85;;;8.25;;
8683;SDS011;4379;59.744;18.206;2022-08-27T05:21:46;8.90;;;8.10;;
8683;SDS011;4379;59.744;18.206;2022-08-27T05:24:17;7.88;;;7.47;;
8683;SDS011;4379;59.744;18.206;2022-08-27T05:26:48;7.70;;;7.30;;
8683;SDS011;4379;59.744;18.206;2022-08-27T05:29:16;8.23;;;7.72;;
8683;SDS011;4379;59.744;18.206;2022-08-27T05:31:44;8.73;;;8.10;;
8683;SDS011;4379;59.744;18.206;2022-08-27T05:34:13;7.72;;;7.13;;
8683;SDS011;4379;59.744;18.206;2022-08-27T05:36:49;9.00;;;8.40;;
8683;SDS011;4379;59.744;18.206;2022-08-27T05:39:18;8.23;;;7.72;;
8683;SDS011;4379;59.744;18.206;2022-08-27T05:41:46;7.82;;;7.40;;
8683;SDS011;4379;59.744;18.206;2022-08-27T05:44:13;8.18;;;7.50;;
8683;SDS011;4379;59.744;18.206;2022-08-27T05:47:03;8.13;;;7.38;;
8683;SDS011;4379;59.744;18.206;2022-08-27T05:49:30;8.00;;;7.53;;
8683;SDS011;4379;59.744;18.206;2022-08-27T05:52:02;8.05;;;7.38;;
8683;SDS011;4379;59.744;18.206;2022-08-27T05:54:33;7.20;;;6.63;;
8683;SDS011;4379;59.744;18.206;2022-08-27T05:57:04;7.43;;;6.85;;
8683;SDS011;4379;59.744;18.206;2022-08-27T05:59:31;7.18;;;6.57;;
8683;SDS011;4379;59.744;18.206;2022-08-27T06:02:17;8.02;;;7.32;;
8683;SDS011;4379;59.744;18.206;2022-08-27T06:04:46;8.38;;;7.68;;
8683;SDS011;4379;59.744;18.206;2022-08-27T06:07:16;7.75;;;6.97;;
8683;SDS011;4379;59.744;18.206;2022-08-27T06:09:44;7.60;;;7.20;;
8683;SDS011;4379;59.744;18.206;2022-08-27T06:12:12;8.40;;;7.60;;
8683;SDS011;4379;59.744;18.206;2022-08-27T06:14:40;7.95;;;7.35;;
8683;SDS011;4379;59.744;18.206;2022-08-27T06:17:07;7.80;;;7.22;;
8683;SDS011;4379;59.744;18.206;2022-08-27T06:19:35;7.80;;;7.15;;
8683;SDS011;4379;59.744;18.206;2022-08-27T06:22:03;7.10;;;6.43;;
8683;SDS011;4379;59.744;18.206;2022-08-27T06:24:39;7.00;;;6.50;;
8683;SDS011;4379;59.744;18.206;2022-08-27T06:27:09;7.18;;;6.50;;
8683;SDS011;4379;59.744;18.206;2022-08-27T06:29:38;7.35;;;6.65;;
8683;SDS011;4379;59.744;18.206;2022-08-27T06:32:07;6.97;;;6.38;;
8683;SDS011;4379;59.744;18.206;2022-08-27T06:34:36;6.72;;;6.28;;
8683;SDS011;4379;59.744;18.206;2022-08-27T06:37:04;6.47;;;6.07;;
8683;SDS011;4379;59.744;18.206;2022-08-27T06:39:32;6.88;;;6.50;;
8683;SDS011;4379;59.744;18.206;2022-08-27T06:42:03;8.38;;;6.78;;
8683;SDS011;4379;59.744;18.206;2022-08-27T06:44:31;8.80;;;7.38;;
8683;SDS011;4379;59.744;18.206;2022-08-27T06:46:59;7.78;;;7.18;;
8683;SDS011;4379;59.744;18.206;2022-08-27T06:49:26;7.35;;;6.80;;
8683;SDS011;4379;59.744;18.206;2022-08-27T06:51:54;7.93;;;7.32;;
8683;SDS011;4379;59.744;18.206;2022-08-27T06:54:22;7.75;;;7.25;;
8683;SDS011;4379;59.744;18.206;2022-08-27T06:56:49;7.50;;;7.00;;
8683;SDS011;4379;59.744;18.206;2022-08-27T06:59:17;7.97;;;7.30;;
8683;SDS011;4379;59.744;18.206;2022-08-27T07:01:47;7.18;;;6.68;;
8683;SDS011;4379;59.744;18.206;2022-08-27T07:04:18;7.32;;;6.80;;
8683;SDS011;4379;59.744;18.206;2022-08-27T07:06:56;8.23;;;7.40;;
8683;SDS011;4379;59.744;18.206;2022-08-27T07:09:23;7.80;;;7.05;;
8683;SDS011;4379;59.744;18.206;2022-08-27T07:11:51;7.72;;;7.13;;
8683;SDS011;4379;59.744;18.206;2022-08-27T07:14:18;7.43;;;6.85;;
8683;SDS011;4379;59.744;18.206;2022-08-27T07:16:46;7.53;;;6.93;;
8683;SDS011;4379;59.744;18.206;2022-08-27T07:19:16;7.47;;;6.85;;
8683;SDS011;4379;59.744;18.206;2022-08-27T07:21:46;7.82;;;7.05;;
8683;SDS011;4379;59.744;18.206;2022-08-27T07:24:13;10.68;;;7.43;;
8683;SDS011;4379;59.744;18.206;2022-08-27T07:26:42;8.73;;;7.45;;
8683;SDS011;4379;59.744;18.206;2022-08-27T07:29:11;7.32;;;6.72;;
8683;SDS011;4379;59.744;18.206;2022-08-27T07:31:40;9.98;;;7.22;;
8683;SDS011;4379;59.744;18.206;2022-08-27T07:34:09;8.35;;;7.63;;
8683;SDS011;4379;59.744;18.206;2022-08-27T07:36:37;9.82;;;7.47;;
8683;SDS011;4379;59.744;18.206;2022-08-27T07:39:04;7.82;;;7.10;;
8683;SDS011;4379;59.744;18.206;2022-08-27T07:41:33;8.85;;;6.82;;
8683;SDS011;4379;59.744;18.206;2022-08-27T07:44:22;6.60;;;6.00;;
8683;SDS011;4379;59.744;18.206;2022-08-27T07:46:52;6.63;;;6.13;;
8683;SDS011;4379;59.744;18.206;2022-08-27T07:49:21;7.40;;;6.40;;
8683;SDS011;4379;59.744;18.206;2022-08-27T07:51:54;6.53;;;5.97;;
8683;SDS011;4379;59.744;18.206;2022-08-27T07:54:21;6.75;;;6.03;;
8683;SDS011;4379;59.744;18.206;2022-08-27T07:56:51;12.07;;;6.18;;
8683;SDS011;4379;59.744;18.206;2022-08-27T07:59:24;6.32;;;5.75;;
8683;SDS011;4379;59.744;18.206;2022-08-27T08:01:53;7.63;;;5.85;;
8683;SDS011;4379;59.744;18.206;2022-08-27T08:04:22;7.50;;;6.15;;
8683;SDS011;4379;59.744;18.206;2022-08-27T08:06:50;7.63;;;5.60;;
8683;SDS011;4379;59.744;18.206;2022-08-27T08:09:18;6.28;;;5.50;;
8683;SDS011;4379;59.744;18.206;2022-08-27T08:11:48;6.55;;;5.95;;
8683;SDS011;4379;59.744;18.206;2022-08-27T08:14:16;6.13;;;5.60;;
8683;SDS011;4379;59.744;18.206;2022-08-27T08:16:46;11.57;;;6.18;;
8683;SDS011;4379;59.744;18.206;2022-08-27T08:19:13;6.60;;;6.03;;
8683;SDS011;4379;59.744;18.206;2022-08-27T08:21:41;8.82;;;6.20;;
8683;SDS011;4379;59.744;18.206;2022-08-27T08:24:09;6.72;;;6.13;;
8683;SDS011;4379;59.744;18.206;2022-08-27T08:26:36;6.88;;;6.28;;
8683;SDS011;4379;59.744;18.206;2022-08-27T08:29:05;9.48;;;6.72;;
8683;SDS011;4379;59.744;18.206;2022-08-27T08:31:32;9.38;;;6.68;;
8683;SDS011;4379;59.744;18.206;2022-08-27T08:34:00;8.63;;;6.80;;
8683;SDS011;4379;59.744;18.206;2022-08-27T08:36:27;7.28;;;6.68;;
8683;SDS011;4379;59.744;18.206;2022-08-27T08:38:55;7.50;;;6.60;;
8683;SDS011;4379;59.744;18.206;2022-08-27T08:44:15;10.35;;;7.00;;
8683;SDS011;4379;59.744;18.206;2022-08-27T08:46:55;7.78;;;7.13;;
8683;SDS011;4379;59.744;18.206;2022-08-27T08:58:06;9.05;;;8.05;;
8683;SDS011;4379;59.744;18.206;2022-08-27T09:01:00;8.77;;;7.72;;
8683;SDS011;4379;59.744;18.206;2022-08-27T09:03:33;8.88;;;7.88;;
8683;SDS011;4379;59.744;18.206;2022-08-27T09:06:18;11.52;;;7.80;;
8683;SDS011;4379;59.744;18.206;2022-08-27T09:09:02;10.00;;;7.72;;
8683;SDS011;4379;59.744;18.206;2022-08-27T09:12:18;9.80;;;7.55;;
8683;SDS011;4379;59.744;18.206;2022-08-27T09:14:52;9.13;;;7.22;;
8683;SDS011;4379;59.744;18.206;2022-08-27T09:17:30;10.32;;;8.38;;
8683;SDS011;4379;59.744;18.206;2022-08-27T09:19:59;9.77;;;7.80;;
8683;SDS011;4379;59.744;18.206;2022-08-27T09:25:13;11.50;;;7.18;;
8683;SDS011;4379;59.744;18.206;2022-08-27T09:27:47;8.57;;;7.65;;
8683;SDS011;4379;59.744;18.206;2022-08-27T09:30:19;8.15;;;7.28;;
8683;SDS011;4379;59.744;18.206;2022-08-27T09:32:58;7.38;;;6.68;;
8683;SDS011;4379;59.744;18.206;2022-08-27T09:35:28;9.27;;;7.38;;
8683;SDS011;4379;59.744;18.206;2022-08-27T09:38:09;7.50;;;6.78;;
8683;SDS011;4379;59.744;18.206;2022-08-27T09:40:40;8.13;;;7.00;;
8683;SDS011;4379;59.744;18.206;2022-08-27T09:45:49;9.55;;;7.70;;
8683;SDS011;4379;59.744;18.206;2022-08-27T09:48:26;8.25;;;7.47;;
8683;SDS011;4379;59.744;18.206;2022-08-27T09:50:57;8.07;;;6.72;;
8683;SDS011;4379;59.744;18.206;2022-08-27T09:53:46;8.73;;;7.28;;
8683;SDS011;4379;59.744;18.206;2022-08-27T09:56:25;8.40;;;7.68;;
8683;SDS011;4379;59.744;18.206;2022-08-27T09:59:31;8.23;;;7.38;;
8683;SDS011;4379;59.744;18.206;2022-08-27T10:02:13;7.95;;;7.05;;
8683;SDS011;4379;59.744;18.206;2022-08-27T10:07:23;7.90;;;7.20;;
8683;SDS011;4379;59.744;18.206;2022-08-27T10:10:07;8.20;;;7.50;;
8683;SDS011;4379;59.744;18.206;2022-08-27T10:12:58;11.27;;;7.68;;
8683;SDS011;4379;59.744;18.206;2022-08-27T10:16:18;8.32;;;7.22;;
8683;SDS011;4379;59.744;18.206;2022-08-27T10:30:52;8.13;;;6.75;;
8683;SDS011;4379;59.744;18.206;2022-08-27T10:33:23;9.75;;;7.43;;
8683;SDS011;4379;59.744;18.206;2022-08-27T10:38:44;7.18;;;6.57;;
8683;SDS011;4379;59.744;18.206;2022-08-27T10:41:25;9.13;;;7.15;;
8683;SDS011;4379;59.744;18.206;2022-08-27T10:47:28;6.88;;;6.43;;
8683;SDS011;4379;59.744;18.206;2022-08-27T10:50:07;7.68;;;6.80;;
8683;SDS011;4379;59.744;18.206;2022-08-27T10:52:51;8.43;;;6.50;;
8683;SDS011;4379;59.744;18.206;2022-08-27T11:04:45;6.97;;;6.25;;
8683;SDS011;4379;59.744;18.206;2022-08-27T11:07:26;7.50;;;6.50;;
8683;SDS011;4379;59.744;18.206;2022-08-27T11:10:02;6.72;;;6.22;;
8683;SDS011;4379;59.744;18.206;2022-08-27T11:12:38;7.18;;;6.55;;
8683;SDS011;4379;59.744;18.206;2022-08-27T11:15:12;6.88;;;6.38;;
8683;SDS011;4379;59.744;18.206;2022-08-27T11:17:53;8.85;;;6.45;;
8683;SDS011;4379;59.744;18.206;2022-08-27T11:20:27;6.45;;;5.85;;
8683;SDS011;4379;59.744;18.206;2022-08-27T11:23:20;7.32;;;6.25;;
8683;SDS011;4379;59.744;18.206;2022-08-27T11:26:03;11.43;;;6.63;;
8683;SDS011;4379;59.744;18.206;2022-08-27T11:28:36;8.35;;;6.60;;
8683;SDS011;4379;59.744;18.206;2022-08-27T11:39:39;6.70;;;6.10;;
8683;SDS011;4379;59.744;18.206;2022-08-27T11:45:05;6.75;;;6.15;;
8683;SDS011;4379;59.744;18.206;2022-08-27T11:47:37;6.53;;;6.00;;
8683;SDS011;4379;59.744;18.206;2022-08-27T11:50:06;8.27;;;5.60;;
8683;SDS011;4379;59.744;18.206;2022-08-27T11:55:35;7.55;;;6.38;;
8683;SDS011;4379;59.744;18.206;2022-08-27T12:00:46;7.55;;;6.82;;
8683;SDS011;4379;59.744;18.206;2022-08-27T12:19:16;7.47;;;6.85;;
8683;SDS011;4379;59.744;18.206;2022-08-27T12:24:43;6.70;;;6.03;;
8683;SDS011;4379;59.744;18.206;2022-08-27T12:40:24;9.88;;;6.43;;
8683;SDS011;4379;59.744;18.206;2022-08-27T12:43:11;6.85;;;6.15;;
8683;SDS011;4379;59.744;18.206;2022-08-27T12:45:42;7.50;;;6.40;;
8683;SDS011;4379;59.744;18.206;2022-08-27T12:48:37;8.65;;;6.22;;
8683;SDS011;4379;59.744;18.206;2022-08-27T12:51:22;7.13;;;6.53;;
8683;SDS011;4379;59.744;18.206;2022-08-27T12:54:01;7.10;;;6.50;;
8683;SDS011;4379;59.744;18.206;2022-08-27T13:02:33;6.60;;;6.10;;
8683;SDS011;4379;59.744;18.206;2022-08-27T13:05:16;6.78;;;6.10;;
8683;SDS011;4379;59.744;18.206;2022-08-27T13:07:47;6.05;;;5.55;;
8683;SDS011;4379;59.744;18.206;2022-08-27T13:12:47;7.30;;;6.28;;
8683;SDS011;4379;59.744;18.206;2022-08-27T13:15:26;6.43;;;5.85;;
8683;SDS011;4379;59.744;18.206;2022-08-27T13:17:53;10.88;;;6.05;;
8683;SDS011;4379;59.744;18.206;2022-08-27T13:20:22;6.38;;;5.75;;
8683;SDS011;4379;59.744;18.206;2022-08-27T13:22:52;8.70;;;6.20;;
8683;SDS011;4379;59.744;18.206;2022-08-27T13:25:26;6.60;;;5.90;;
8683;SDS011;4379;59.744;18.206;2022-08-27T13:28:00;6.95;;;5.95;;
8683;SDS011;4379;59.744;18.206;2022-08-27T13:30:42;7.18;;;6.40;;
8683;SDS011;4379;59.744;18.206;2022-08-27T13:33:20;7.80;;;6.22;;
8683;SDS011;4379;59.744;18.206;2022-08-27T13:35:50;8.00;;;6.80;;
8683;SDS011;4379;59.744;18.206;2022-08-27T13:38:19;6.40;;;5.82;;
8683;SDS011;4379;59.744;18.206;2022-08-27T13:43:33;7.63;;;6.20;;
8683;SDS011;4379;59.744;18.206;2022-08-27T13:46:09;6.70;;;6.03;;
8683;SDS011;4379;59.744;18.206;2022-08-27T13:48:41;6.85;;;6.15;;
8683;SDS011;4379;59.744;18.206;2022-08-27T13:51:14;8.60;;;6.25;;
8683;SDS011;4379;59.744;18.206;2022-08-27T13:53:51;6.75;;;6.32;;
8683;SDS011;4379;59.744;18.206;2022-08-27T13:56:37;7.03;;;6.40;;
8683;SDS011;4379;59.744;18.206;2022-08-27T13:59:13;6.20;;;5.70;;
8683;SDS011;4379;59.744;18.206;2022-08-27T14:04:22;6.82;;;6.00;;
8683;SDS011;4379;59.744;18.206;2022-08-27T14:06:53;7.05;;;6.30;;
8683;SDS011;4379;59.744;18.206;2022-08-27T14:09:24;6.40;;;5.80;;
8683;SDS011;4379;59.744;18.206;2022-08-27T14:11:59;7.40;;;6.25;;
8683;SDS011;4379;59.744;18.206;2022-08-27T14:14:30;6.90;;;5.95;;
8683;SDS011;4379;59.744;18.206;2022-08-27T14:17:18;6.40;;;5.90;;
8683;SDS011;4379;59.744;18.206;2022-08-27T14:19:58;6.30;;;5.55;;
8683;SDS011;4379;59.744;18.206;2022-08-27T14:22:29;6.07;;;5.68;;
8683;SDS011;4379;59.744;18.206;2022-08-27T14:24:57;7.60;;;6.70;;
8683;SDS011;4379;59.744;18.206;2022-08-27T14:27:24;6.30;;;5.80;;
8683;SDS011;4379;59.744;18.206;2022-08-27T14:29:53;6.30;;;5.80;;
8683;SDS011;4379;59.744;18.206;2022-08-27T14:32:21;8.55;;;6.10;;
8683;SDS011;4379;59.744;18.206;2022-08-27T14:34:51;6.70;;;6.20;;
8683;SDS011;4379;59.744;18.206;2022-08-27T14:37:19;8.00;;;6.35;;
8683;SDS011;4379;59.744;18.206;2022-08-27T14:39:47;6.60;;;6.07;;
8683;SDS011;4379;59.744;18.206;2022-08-27T14:42:15;7.25;;;6.55;;
8683;SDS011;4379;59.744;18.206;2022-08-27T14:44:46;8.00;;;6.57;;
8683;SDS011;4379;59.744;18.206;2022-08-27T14:47:14;7.55;;;6.45;;
8683;SDS011;4379;59.744;18.206;2022-08-27T14:49:43;8.13;;;6.57;;
8683;SDS011;4379;59.744;18.206;2022-08-27T14:52:12;6.85;;;6.35;;
8683;SDS011;4379;59.744;18.206;2022-08-27T14:54:41;7.30;;;6.60;;
8683;SDS011;4379;59.744;18.206;2022-08-27T14:57:12;7.47;;;6.80;;
8683;SDS011;4379;59.744;18.206;2022-08-27T14:59:40;8.07;;;7.22;;
8683;SDS011;4379;59.744;18.206;2022-08-27T15:02:09;8.05;;;6.45;;
8683;SDS011;4379;59.744;18.206;2022-08-27T15:04:40;7.38;;;6.57;;
8683;SDS011;4379;59.744;18.206;2022-08-27T15:07:12;8.13;;;6.45;;
8683;SDS011;4379;59.744;18.206;2022-08-27T15:09:40;7.30;;;6.63;;
8683;SDS011;4379;59.744;18.206;2022-08-27T15:12:08;7.00;;;6.40;;
8683;SDS011;4379;59.744;18.206;2022-08-27T15:14:52;7.38;;;6.68;;
8683;SDS011;4379;59.744;18.206;2022-08-27T15:17:20;7.28;;;6.32;;
8683;SDS011;4379;59.744;18.206;2022-08-27T15:20:00;6.60;;;6.10;;
8683;SDS011;4379;59.744;18.206;2022-08-27T15:22:35;6.90;;;6.28;;
8683;SDS011;4379;59.744;18.206;2022-08-27T15:25:09;7.65;;;6.32;;
8683;SDS011;4379;59.744;18.206;2022-08-27T15:27:38;7.57;;;6.50;;
8683;SDS011;4379;59.744;18.206;2022-08-27T15:30:06;7.35;;;6.53;;
8683;SDS011;4379;59.744;18.206;2022-08-27T15:32:36;7.10;;;6.53;;
8683;SDS011;4379;59.744;18.206;2022-08-27T15:35:08;8.07;;;7.25;;
8683;SDS011;4379;59.744;18.206;2022-08-27T15:37:40;7.95;;;6.70;;
8683;SDS011;4379;59.744;18.206;2022-08-27T15:40:09;7.82;;;7.03;;
8683;SDS011;4379;59.744;18.206;2022-08-27T15:42:39;8.18;;;7.43;;
8683;SDS011;4379;59.744;18.206;2022-08-27T15:45:07;8.68;;;7.50;;
8683;SDS011;4379;59.744;18.206;2022-08-27T15:47:37;9.38;;;7.70;;
8683;SDS011;4379;59.744;18.206;2022-08-27T15:50:05;9.13;;;8.27;;
8683;SDS011;4379;59.744;18.206;2022-08-27T15:52:33;8.63;;;7.65;;
8683;SDS011;4379;59.744;18.206;2022-08-27T15:55:11;8.30;;;7.70;;
8683;SDS011;4379;59.744;18.206;2022-08-27T15:57:48;9.00;;;8.10;;
8683;SDS011;4379;59.744;18.206;2022-08-27T16:00:17;7.93;;;7.18;;
8683;SDS011;4379;59.744;18.206;2022-08-27T16:02:47;8.40;;;7.70;;
8683;SDS011;4379;59.744;18.206;2022-08-27T16:05:15;8.80;;;7.95;;
8683;SDS011;4379;59.744;18.206;2022-08-27T16:07:46;9.02;;;8.13;;
8683;SDS011;4379;59.744;18.206;2022-08-27T16:10:14;9.10;;;8.05;;
8683;SDS011;4379;59.744;18.206;2022-08-27T16:12:42;8.77;;;7.88;;
8683;SDS011;4379;59.744;18.206;2022-08-27T16:15:10;8.68;;;7.80;;
8683;SDS011;4379;59.744;18.206;2022-08-27T16:17:37;8.80;;;7.90;;
8683;SDS011;4379;59.744;18.206;2022-08-27T16:20:06;10.55;;;8.00;;
8683;SDS011;4379;59.744;18.206;2022-08-27T16:22:36;9.32;;;8.45;;
8683;SDS011;4379;59.744;18.206;2022-08-27T16:25:04;13.45;;;8.63;;
8683;SDS011;4379;59.744;18.206;2022-08-27T16:27:34;11.43;;;10.20;;
8683;SDS011;4379;59.744;18.206;2022-08-27T16:30:25;9.63;;;8.73;;
8683;SDS011;4379;59.744;18.206;2022-08-27T16:36:23;9.82;;;8.57;;
8683;SDS011;4379;59.744;18.206;2022-08-27T16:38:52;9.48;;;8.48;;
8683;SDS011;4379;59.744;18.206;2022-08-27T16:41:21;9.93;;;8.07;;
8683;SDS011;4379;59.744;18.206;2022-08-27T16:43:50;9.70;;;8.27;;
8683;SDS011;4379;59.744;18.206;2022-08-27T16:46:22;9.30;;;8.43;;
8683;SDS011;4379;59.744;18.206;2022-08-27T16:49:30;9.45;;;8.10;;
8683;SDS011;4379;59.744;18.206;2022-08-27T16:52:17;8.88;;;8.18;;
8683;SDS011;4379;59.744;18.206;2022-08-27T16:54:45;9.48;;;8.48;;
8683;SDS011;4379;59.744;18.206;2022-08-27T16:57:13;11.35;;;8.02;;
8683;SDS011;4379;59.744;18.206;2022-08-27T16:59:40;9.13;;;8.40;;
8683;SDS011;4379;59.744;18.206;2022-08-27T17:02:21;9.43;;;8.45;;
8683;SDS011;4379;59.744;18.206;2022-08-27T17:04:56;10.18;;;8.85;;
8683;SDS011;4379;59.744;18.206;2022-08-27T17:07:47;8.45;;;7.65;;
8683;SDS011;4379;59.744;18.206;2022-08-27T17:10:18;9.68;;;8.75;;
8683;SDS011;4379;59.744;18.206;2022-08-27T17:12:46;8.77;;;8.07;;
8683;SDS011;4379;59.744;18.206;2022-08-27T17:15:17;13.07;;;8.85;;
8683;SDS011;4379;59.744;18.206;2022-08-27T17:17:45;12.80;;;8.98;;
8683;SDS011;4379;59.744;18.206;2022-08-27T17:20:12;12.07;;;8.40;;
8683;SDS011;4379;59.744;18.206;2022-08-27T17:22:41;13.63;;;8.43;;
8683;SDS011;4379;59.744;18.206;2022-08-27T17:25:09;9.77;;;8.80;;
8683;SDS011;4379;59.744;18.206;2022-08-27T17:27:38;9.85;;;8.85;;
8683;SDS011;4379;59.744;18.206;2022-08-27T17:30:06;9.60;;;8.90;;